sensor_id;sensor_type;location;lat;lon;timestamp;temperature;humidity
12959;DHT22;6544;51.666;6.634;2023-07-20T00:02:02;18.90;99.90
12959;DHT22;6544;51.666;6.634;2023-07-20T00:04:31;19.00;99.90
12959;DHT22;6544;51.666;6.634;2023-07-20T00:06:57;19.00;99.90
12959;DHT22;6544;51.666;6.634;2023-07-20T00:09:26;18.90;99.90
12959;DHT22;6544;51.666;6.634;2023-07-20T00:11:54;19.00;99.90
12959;DHT22;6544;51.666;6.634;2023-07-20T00:14:21;18.90;99.90
12959;DHT22;6544;51.666;6.634;2023-07-20T00:16:50;18.80;99.90
12959;DHT22;6544;51.666;6.634;2023-07-20T00:19:21;19.00;99.90
12959;DHT22;6544;51.666;6.634;2023-07-20T00:21:49;19.00;99.90
12959;DHT22;6544;51.666;6.634;2023-07-20T00:24:16;19.00;99.90
12959;DHT22;6544;51.666;6.634;2023-07-20T00:26:43;19.10;99.90
12959;DHT22;6544;51.666;6.634;2023-07-20T00:29:11;19.00;99.90
12959;DHT22;6544;51.666;6.634;2023-07-20T00:31:38;19.10;99.90
12959;DHT22;6544;51.666;6.634;2023-07-20T00:34:05;19.10;99.90
12959;DHT22;6544;51.666;6.634;2023-07-20T00:36:32;19.00;99.90
12959;DHT22;6544;51.666;6.634;2023-07-20T00:38:59;18.90;99.90
12959;DHT22;6544;51.666;6.634;2023-07-20T00:41:26;19.00;99.90
12959;DHT22;6544;51.666;6.634;2023-07-20T00:43:55;19.00;99.90
12959;DHT22;6544;51.666;6.634;2023-07-20T00:46:23;19.00;99.90
12959;DHT22;6544;51.666;6.634;2023-07-20T00:48:51;19.00;99.90
12959;DHT22;6544;51.666;6.634;2023-07-20T00:51:20;19.10;92.90
12959;DHT22;6544;51.666;6.634;2023-07-20T00:53:47;18.90;99.90
12959;DHT22;6544;51.666;6.634;2023-07-20T00:56:14;19.00;99.90
12959;DHT22;6544;51.666;6.634;2023-07-20T00:58:41;18.80;99.90
12959;DHT22;6544;51.666;6.634;2023-07-20T01:01:08;18.80;99.90
12959;DHT22;6544;51.666;6.634;2023-07-20T01:03:37;18.70;99.90
12959;DHT22;6544;51.666;6.634;2023-07-20T01:06:10;18.60;99.90
12959;DHT22;6544;51.666;6.634;2023-07-20T01:08:43;18.60;99.90
12959;DHT22;6544;51.666;6.634;2023-07-20T01:11:16;18.70;99.90
12959;DHT22;6544;51.666;6.634;2023-07-20T01:13:48;18.60;99.90
12959;DHT22;6544;51.666;6.634;2023-07-20T01:16:15;18.70;99.90
12959;DHT22;6544;51.666;6.634;2023-07-20T01:18:44;18.70;99.90
12959;DHT22;6544;51.666;6.634;2023-07-20T01:21:28;18.30;1.00
12959;DHT22;6544;51.666;6.634;2023-07-20T01:24:11;18.00;1.00
12959;DHT22;6544;51.666;6.634;2023-07-20T01:26:59;17.70;99.90
12959;DHT22;6544;51.666;6.634;2023-07-20T01:29:44;17.60;1.00
12959;DHT22;6544;51.666;6.634;2023-07-20T01:32:19;17.50;1.00
12959;DHT22;6544;51.666;6.634;2023-07-20T01:34:52;17.50;1.00
12959;DHT22;6544;51.666;6.634;2023-07-20T01:37:20;17.50;1.00
12959;DHT22;6544;51.666;6.634;2023-07-20T01:39:51;17.50;99.90
12959;DHT22;6544;51.666;6.634;2023-07-20T01:42:21;17.40;1.00
12959;DHT22;6544;51.666;6.634;2023-07-20T01:44:50;17.20;1.00
12959;DHT22;6544;51.666;6.634;2023-07-20T01:47:18;17.30;1.00
12959;DHT22;6544;51.666;6.634;2023-07-20T01:49:45;17.50;1.00
12959;DHT22;6544;51.666;6.634;2023-07-20T01:52:12;17.70;1.00
12959;DHT22;6544;51.666;6.634;2023-07-20T01:54:39;17.80;99.90
12959;DHT22;6544;51.666;6.634;2023-07-20T01:57:06;17.70;33.20
12959;DHT22;6544;51.666;6.634;2023-07-20T01:59:33;17.80;98.40
12959;DHT22;6544;51.666;6.634;2023-07-20T02:02:00;17.70;1.00
12959;DHT22;6544;51.666;6.634;2023-07-20T02:04:28;17.80;1.00
12959;DHT22;6544;51.666;6.634;2023-07-20T02:06:55;17.90;99.90
12959;DHT22;6544;51.666;6.634;2023-07-20T02:09:22;17.90;99.90
12959;DHT22;6544;51.666;6.634;2023-07-20T02:11:49;17.70;99.90
12959;DHT22;6544;51.666;6.634;2023-07-20T02:14:16;17.80;1.00
12959;DHT22;6544;51.666;6.634;2023-07-20T02:16:43;17.50;99.90
12959;DHT22;6544;51.666;6.634;2023-07-20T02:19:10;17.60;99.90
12959;DHT22;6544;51.666;6.634;2023-07-20T02:21:39;17.50;1.00
12959;DHT22;6544;51.666;6.634;2023-07-20T02:24:05;17.60;1.00
12959;DHT22;6544;51.666;6.634;2023-07-20T02:26:32;17.50;1.00
12959;DHT22;6544;51.666;6.634;2023-07-20T02:28:59;17.50;1.00
12959;DHT22;6544;51.666;6.634;2023-07-20T02:31:26;17.40;99.90
12959;DHT22;6544;51.666;6.634;2023-07-20T02:33:53;17.50;1.00
12959;DHT22;6544;51.666;6.634;2023-07-20T02:36:20;17.40;99.90
12959;DHT22;6544;51.666;6.634;2023-07-20T02:38:48;17.60;99.90
12959;DHT22;6544;51.666;6.634;2023-07-20T02:41:15;17.20;99.90
12959;DHT22;6544;51.666;6.634;2023-07-20T02:43:42;16.90;99.90
12959;DHT22;6544;51.666;6.634;2023-07-20T02:46:09;17.00;99.90
12959;DHT22;6544;51.666;6.634;2023-07-20T02:48:35;16.80;99.90
12959;DHT22;6544;51.666;6.634;2023-07-20T02:51:02;16.70;99.90
12959;DHT22;6544;51.666;6.634;2023-07-20T02:53:29;16.70;99.90
12959;DHT22;6544;51.666;6.634;2023-07-20T02:55:57;16.50;18.50
12959;DHT22;6544;51.666;6.634;2023-07-20T02:58:24;16.40;1.00
12959;DHT22;6544;51.666;6.634;2023-07-20T03:00:53;16.30;39.60
12959;DHT22;6544;51.666;6.634;2023-07-20T03:03:20;16.20;1.00
12959;DHT22;6544;51.666;6.634;2023-07-20T03:05:47;16.30;99.90
12959;DHT22;6544;51.666;6.634;2023-07-20T03:08:20;16.30;1.00
12959;DHT22;6544;51.666;6.634;2023-07-20T03:10:46;16.30;1.00
12959;DHT22;6544;51.666;6.634;2023-07-20T03:13:15;16.30;1.00
12959;DHT22;6544;51.666;6.634;2023-07-20T03:15:41;16.30;1.00
12959;DHT22;6544;51.666;6.634;2023-07-20T03:18:08;16.20;44.40
12959;DHT22;6544;51.666;6.634;2023-07-20T03:20:35;16.20;1.00
12959;DHT22;6544;51.666;6.634;2023-07-20T03:23:02;16.20;1.00
12959;DHT22;6544;51.666;6.634;2023-07-20T03:25:29;16.30;1.00
12959;DHT22;6544;51.666;6.634;2023-07-20T03:27:56;16.10;81.90
12959;DHT22;6544;51.666;6.634;2023-07-20T03:30:24;16.10;1.00
12959;DHT22;6544;51.666;6.634;2023-07-20T03:32:51;16.20;1.00
12959;DHT22;6544;51.666;6.634;2023-07-20T03:35:18;16.10;1.00
12959;DHT22;6544;51.666;6.634;2023-07-20T03:37:45;16.20;1.00
12959;DHT22;6544;51.666;6.634;2023-07-20T03:40:12;16.10;99.90
12959;DHT22;6544;51.666;6.634;2023-07-20T03:42:40;16.20;1.00
12959;DHT22;6544;51.666;6.634;2023-07-20T03:45:07;16.20;1.00
12959;DHT22;6544;51.666;6.634;2023-07-20T03:47:36;16.30;1.00
12959;DHT22;6544;51.666;6.634;2023-07-20T03:50:03;16.10;1.00
12959;DHT22;6544;51.666;6.634;2023-07-20T03:52:31;16.00;1.00
12959;DHT22;6544;51.666;6.634;2023-07-20T03:54:58;16.00;1.00
12959;DHT22;6544;51.666;6.634;2023-07-20T03:57:25;16.00;1.00
12959;DHT22;6544;51.666;6.634;2023-07-20T03:59:52;16.00;1.00
12959;DHT22;6544;51.666;6.634;2023-07-20T04:02:20;16.00;99.90
12959;DHT22;6544;51.666;6.634;2023-07-20T04:04:48;15.90;1.00
12959;DHT22;6544;51.666;6.634;2023-07-20T04:07:15;16.10;1.00
12959;DHT22;6544;51.666;6.634;2023-07-20T04:09:42;15.90;1.00
12959;DHT22;6544;51.666;6.634;2023-07-20T04:12:09;16.00;99.90
12959;DHT22;6544;51.666;6.634;2023-07-20T04:14:35;15.70;99.90
12959;DHT22;6544;51.666;6.634;2023-07-20T04:17:03;15.70;1.00
12959;DHT22;6544;51.666;6.634;2023-07-20T04:19:30;15.70;1.00
12959;DHT22;6544;51.666;6.634;2023-07-20T04:21:58;15.70;99.90
12959;DHT22;6544;51.666;6.634;2023-07-20T04:24:27;15.60;98.90
12959;DHT22;6544;51.666;6.634;2023-07-20T04:26:54;15.60;1.00
12959;DHT22;6544;51.666;6.634;2023-07-20T04:29:21;15.70;1.00
12959;DHT22;6544;51.666;6.634;2023-07-20T04:31:48;15.50;99.90
12959;DHT22;6544;51.666;6.634;2023-07-20T04:34:14;15.40;1.00
12959;DHT22;6544;51.666;6.634;2023-07-20T04:36:41;15.30;99.90
12959;DHT22;6544;51.666;6.634;2023-07-20T04:39:10;15.30;1.00
12959;DHT22;6544;51.666;6.634;2023-07-20T04:41:37;15.40;1.00
12959;DHT22;6544;51.666;6.634;2023-07-20T04:44:04;15.40;1.00
12959;DHT22;6544;51.666;6.634;2023-07-20T04:46:31;15.50;99.90
12959;DHT22;6544;51.666;6.634;2023-07-20T04:48:58;15.50;99.90
12959;DHT22;6544;51.666;6.634;2023-07-20T04:51:24;15.40;99.90
12959;DHT22;6544;51.666;6.634;2023-07-20T04:53:51;15.40;1.00
12959;DHT22;6544;51.666;6.634;2023-07-20T04:56:19;15.40;1.00
12959;DHT22;6544;51.666;6.634;2023-07-20T04:58:48;15.40;1.00
12959;DHT22;6544;51.666;6.634;2023-07-20T05:01:15;15.40;1.00
12959;DHT22;6544;51.666;6.634;2023-07-20T05:03:42;15.50;1.00
12959;DHT22;6544;51.666;6.634;2023-07-20T05:06:09;15.50;99.90
12959;DHT22;6544;51.666;6.634;2023-07-20T05:08:36;15.40;52.10
12959;DHT22;6544;51.666;6.634;2023-07-20T05:11:04;15.40;99.90
12959;DHT22;6544;51.666;6.634;2023-07-20T05:13:32;15.30;99.90
12959;DHT22;6544;51.666;6.634;2023-07-20T05:15:59;15.20;99.90
12959;DHT22;6544;51.666;6.634;2023-07-20T05:18:26;15.30;1.00
12959;DHT22;6544;51.666;6.634;2023-07-20T05:20:53;15.30;99.90
12959;DHT22;6544;51.666;6.634;2023-07-20T05:23:21;15.30;99.90
12959;DHT22;6544;51.666;6.634;2023-07-20T05:25:53;15.40;1.00
12959;DHT22;6544;51.666;6.634;2023-07-20T05:28:20;15.30;99.90
12959;DHT22;6544;51.666;6.634;2023-07-20T05:30:50;15.40;1.00
12959;DHT22;6544;51.666;6.634;2023-07-20T05:33:18;15.40;99.90
12959;DHT22;6544;51.666;6.634;2023-07-20T05:35:45;15.30;99.90
12959;DHT22;6544;51.666;6.634;2023-07-20T05:38:12;15.30;1.00
12959;DHT22;6544;51.666;6.634;2023-07-20T05:40:40;15.20;99.90
12959;DHT22;6544;51.666;6.634;2023-07-20T05:43:07;15.20;99.90
12959;DHT22;6544;51.666;6.634;2023-07-20T05:45:34;15.20;1.00
12959;DHT22;6544;51.666;6.634;2023-07-20T05:48:03;15.30;99.90
12959;DHT22;6544;51.666;6.634;2023-07-20T05:50:30;15.20;1.00
12959;DHT22;6544;51.666;6.634;2023-07-20T05:52:57;15.10;1.00
12959;DHT22;6544;51.666;6.634;2023-07-20T05:55:23;15.30;99.90
12959;DHT22;6544;51.666;6.634;2023-07-20T05:57:50;15.40;1.00
12959;DHT22;6544;51.666;6.634;2023-07-20T06:00:18;15.40;1.00
12959;DHT22;6544;51.666;6.634;2023-07-20T06:02:51;15.40;1.00
12959;DHT22;6544;51.666;6.634;2023-07-20T06:05:20;15.40;1.00
12959;DHT22;6544;51.666;6.634;2023-07-20T06:07:46;15.30;1.00
12959;DHT22;6544;51.666;6.634;2023-07-20T06:10:13;15.20;1.00
12959;DHT22;6544;51.666;6.634;2023-07-20T06:12:40;15.20;99.90
12959;DHT22;6544;51.666;6.634;2023-07-20T06:15:24;15.30;99.90
12959;DHT22;6544;51.666;6.634;2023-07-20T06:17:53;15.40;1.00
12959;DHT22;6544;51.666;6.634;2023-07-20T06:20:21;15.30;99.90
12959;DHT22;6544;51.666;6.634;2023-07-20T06:22:48;15.40;99.90
12959;DHT22;6544;51.666;6.634;2023-07-20T06:25:15;15.50;99.90
12959;DHT22;6544;51.666;6.634;2023-07-20T06:27:43;15.40;1.00
12959;DHT22;6544;51.666;6.634;2023-07-20T06:30:10;15.40;1.00
12959;DHT22;6544;51.666;6.634;2023-07-20T06:32:37;15.60;1.00
12959;DHT22;6544;51.666;6.634;2023-07-20T06:35:05;15.70;1.00
12959;DHT22;6544;51.666;6.634;2023-07-20T06:37:35;15.70;99.90
12959;DHT22;6544;51.666;6.634;2023-07-20T06:40:02;15.70;99.90
12959;DHT22;6544;51.666;6.634;2023-07-20T06:42:30;15.70;99.90
12959;DHT22;6544;51.666;6.634;2023-07-20T06:44:57;15.70;99.90
12959;DHT22;6544;51.666;6.634;2023-07-20T06:47:24;15.60;50.90
12959;DHT22;6544;51.666;6.634;2023-07-20T06:49:51;15.60;70.70
12959;DHT22;6544;51.666;6.634;2023-07-20T06:52:18;15.70;1.00
12959;DHT22;6544;51.666;6.634;2023-07-20T06:54:46;15.70;1.00
12959;DHT22;6544;51.666;6.634;2023-07-20T06:57:13;15.80;1.00
12959;DHT22;6544;51.666;6.634;2023-07-20T06:59:40;15.80;99.90
12959;DHT22;6544;51.666;6.634;2023-07-20T07:02:07;15.80;99.90
12959;DHT22;6544;51.666;6.634;2023-07-20T07:04:34;15.90;99.90
12959;DHT22;6544;51.666;6.634;2023-07-20T07:07:01;16.00;75.70
12959;DHT22;6544;51.666;6.634;2023-07-20T07:09:29;16.00;1.00
12959;DHT22;6544;51.666;6.634;2023-07-20T07:11:57;16.10;1.00
12959;DHT22;6544;51.666;6.634;2023-07-20T07:14:24;16.30;1.00
12959;DHT22;6544;51.666;6.634;2023-07-20T07:16:51;16.40;99.90
12959;DHT22;6544;51.666;6.634;2023-07-20T07:19:18;16.60;99.90
12959;DHT22;6544;51.666;6.634;2023-07-20T07:21:45;16.80;99.90
12959;DHT22;6544;51.666;6.634;2023-07-20T07:24:12;16.80;1.00
12959;DHT22;6544;51.666;6.634;2023-07-20T07:26:39;16.80;1.00
12959;DHT22;6544;51.666;6.634;2023-07-20T07:29:07;17.00;1.00
12959;DHT22;6544;51.666;6.634;2023-07-20T07:31:35;16.80;99.90
12959;DHT22;6544;51.666;6.634;2023-07-20T07:34:02;16.90;99.90
12959;DHT22;6544;51.666;6.634;2023-07-20T07:36:30;17.10;99.90
12959;DHT22;6544;51.666;6.634;2023-07-20T07:38:57;17.00;99.90
12959;DHT22;6544;51.666;6.634;2023-07-20T07:41:24;17.20;99.90
12959;DHT22;6544;51.666;6.634;2023-07-20T07:43:50;17.50;99.90
12959;DHT22;6544;51.666;6.634;2023-07-20T07:46:19;17.70;99.90
12959;DHT22;6544;51.666;6.634;2023-07-20T07:48:47;17.50;99.90
12959;DHT22;6544;51.666;6.634;2023-07-20T07:51:14;17.30;99.90
12959;DHT22;6544;51.666;6.634;2023-07-20T07:53:41;17.20;99.90
12959;DHT22;6544;51.666;6.634;2023-07-20T07:56:09;16.90;99.90
12959;DHT22;6544;51.666;6.634;2023-07-20T07:58:36;16.80;99.90
12959;DHT22;6544;51.666;6.634;2023-07-20T08:01:03;16.90;99.90
12959;DHT22;6544;51.666;6.634;2023-07-20T08:03:31;17.00;99.90
12959;DHT22;6544;51.666;6.634;2023-07-20T08:05:58;17.30;99.90
12959;DHT22;6544;51.666;6.634;2023-07-20T08:08:26;17.40;13.40
12959;DHT22;6544;51.666;6.634;2023-07-20T08:10:53;17.20;1.00
12959;DHT22;6544;51.666;6.634;2023-07-20T08:13:21;17.60;1.00
12959;DHT22;6544;51.666;6.634;2023-07-20T08:15:50;17.60;1.00
12959;DHT22;6544;51.666;6.634;2023-07-20T08:18:17;18.00;1.00
12959;DHT22;6544;51.666;6.634;2023-07-20T08:20:48;18.10;1.00
12959;DHT22;6544;51.666;6.634;2023-07-20T08:23:15;18.10;1.00
12959;DHT22;6544;51.666;6.634;2023-07-20T08:25:42;18.10;1.00
12959;DHT22;6544;51.666;6.634;2023-07-20T08:28:10;18.00;1.00
12959;DHT22;6544;51.666;6.634;2023-07-20T08:30:41;18.20;1.00
12959;DHT22;6544;51.666;6.634;2023-07-20T08:35:37;18.40;1.00
12959;DHT22;6544;51.666;6.634;2023-07-20T08:38:05;18.30;1.00
12959;DHT22;6544;51.666;6.634;2023-07-20T08:40:33;18.50;1.00
12959;DHT22;6544;51.666;6.634;2023-07-20T08:43:01;18.30;1.00
12959;DHT22;6544;51.666;6.634;2023-07-20T08:45:28;18.20;1.00
12959;DHT22;6544;51.666;6.634;2023-07-20T08:47:58;18.30;1.00
12959;DHT22;6544;51.666;6.634;2023-07-20T08:50:26;18.50;1.00
12959;DHT22;6544;51.666;6.634;2023-07-20T08:52:57;18.60;1.00
12959;DHT22;6544;51.666;6.634;2023-07-20T08:55:26;18.50;1.00
12959;DHT22;6544;51.666;6.634;2023-07-20T08:57:54;18.40;1.00
12959;DHT22;6544;51.666;6.634;2023-07-20T09:00:22;18.20;1.00
12959;DHT22;6544;51.666;6.634;2023-07-20T09:02:50;17.90;1.00
12959;DHT22;6544;51.666;6.634;2023-07-20T09:05:18;17.90;1.00
12959;DHT22;6544;51.666;6.634;2023-07-20T09:07:45;17.90;1.00
12959;DHT22;6544;51.666;6.634;2023-07-20T09:10:12;18.20;1.00
12959;DHT22;6544;51.666;6.634;2023-07-20T09:12:42;18.50;1.00
12959;DHT22;6544;51.666;6.634;2023-07-20T09:15:11;18.90;1.00
12959;DHT22;6544;51.666;6.634;2023-07-20T09:17:38;19.10;1.00
12959;DHT22;6544;51.666;6.634;2023-07-20T09:20:06;19.10;1.00
12959;DHT22;6544;51.666;6.634;2023-07-20T09:22:36;19.20;1.00
12959;DHT22;6544;51.666;6.634;2023-07-20T09:25:06;19.20;1.00
12959;DHT22;6544;51.666;6.634;2023-07-20T09:27:39;19.20;1.00
12959;DHT22;6544;51.666;6.634;2023-07-20T09:30:08;19.50;1.00
12959;DHT22;6544;51.666;6.634;2023-07-20T09:32:39;19.50;1.00
12959;DHT22;6544;51.666;6.634;2023-07-20T09:35:07;19.70;1.00
12959;DHT22;6544;51.666;6.634;2023-07-20T09:37:38;19.90;1.00
12959;DHT22;6544;51.666;6.634;2023-07-20T09:40:07;19.90;1.00
12959;DHT22;6544;51.666;6.634;2023-07-20T09:42:35;19.70;1.00
12959;DHT22;6544;51.666;6.634;2023-07-20T09:45:07;19.50;1.00
12959;DHT22;6544;51.666;6.634;2023-07-20T09:47:36;19.50;1.00
12959;DHT22;6544;51.666;6.634;2023-07-20T09:50:05;19.50;1.00
12959;DHT22;6544;51.666;6.634;2023-07-20T09:52:37;19.50;1.00
12959;DHT22;6544;51.666;6.634;2023-07-20T09:55:06;19.30;1.00
12959;DHT22;6544;51.666;6.634;2023-07-20T09:57:33;19.30;1.00
12959;DHT22;6544;51.666;6.634;2023-07-20T10:00:00;19.30;1.00
12959;DHT22;6544;51.666;6.634;2023-07-20T10:02:39;19.50;1.00
12959;DHT22;6544;51.666;6.634;2023-07-20T10:05:08;19.50;1.00
12959;DHT22;6544;51.666;6.634;2023-07-20T10:07:43;19.40;1.00
12959;DHT22;6544;51.666;6.634;2023-07-20T10:10:10;19.60;1.00
12959;DHT22;6544;51.666;6.634;2023-07-20T10:12:39;20.00;1.00
12959;DHT22;6544;51.666;6.634;2023-07-20T10:15:12;20.40;1.00
12959;DHT22;6544;51.666;6.634;2023-07-20T10:17:47;20.30;1.00
12959;DHT22;6544;51.666;6.634;2023-07-20T10:20:17;20.50;1.00
12959;DHT22;6544;51.666;6.634;2023-07-20T10:22:48;20.50;1.00
12959;DHT22;6544;51.666;6.634;2023-07-20T10:25:16;20.30;1.00
12959;DHT22;6544;51.666;6.634;2023-07-20T10:27:45;20.50;1.00
12959;DHT22;6544;51.666;6.634;2023-07-20T10:30:12;20.30;1.00
12959;DHT22;6544;51.666;6.634;2023-07-20T10:32:42;20.40;1.00
12959;DHT22;6544;51.666;6.634;2023-07-20T10:35:13;20.40;1.00
12959;DHT22;6544;51.666;6.634;2023-07-20T10:37:47;20.60;1.00
12959;DHT22;6544;51.666;6.634;2023-07-20T10:40:28;20.60;1.00
12959;DHT22;6544;51.666;6.634;2023-07-20T10:43:03;20.80;1.00
12959;DHT22;6544;51.666;6.634;2023-07-20T10:45:45;21.00;1.00
12959;DHT22;6544;51.666;6.634;2023-07-20T10:48:18;21.20;99.90
12959;DHT22;6544;51.666;6.634;2023-07-20T10:53:28;21.00;99.90
12959;DHT22;6544;51.666;6.634;2023-07-20T10:56:06;21.20;99.90
12959;DHT22;6544;51.666;6.634;2023-07-20T10:58:34;20.60;99.90
12959;DHT22;6544;51.666;6.634;2023-07-20T11:01:02;20.50;99.90
12959;DHT22;6544;51.666;6.634;2023-07-20T11:03:32;20.70;99.90
12959;DHT22;6544;51.666;6.634;2023-07-20T11:06:00;20.90;99.90
12959;DHT22;6544;51.666;6.634;2023-07-20T11:08:46;20.80;99.90
12959;DHT22;6544;51.666;6.634;2023-07-20T11:11:23;21.20;99.90
12959;DHT22;6544;51.666;6.634;2023-07-20T11:13:57;21.50;99.90
12959;DHT22;6544;51.666;6.634;2023-07-20T11:16:43;21.00;99.90
12959;DHT22;6544;51.666;6.634;2023-07-20T11:19:16;20.90;99.90
12959;DHT22;6544;51.666;6.634;2023-07-20T11:21:44;20.70;99.90
12959;DHT22;6544;51.666;6.634;2023-07-20T11:24:12;20.70;99.90
12959;DHT22;6544;51.666;6.634;2023-07-20T11:26:43;20.60;99.90
12959;DHT22;6544;51.666;6.634;2023-07-20T11:29:10;21.00;99.90
12959;DHT22;6544;51.666;6.634;2023-07-20T11:31:38;21.20;99.90
12959;DHT22;6544;51.666;6.634;2023-07-20T11:34:05;21.30;99.90
12959;DHT22;6544;51.666;6.634;2023-07-20T11:36:35;21.40;99.90
12959;DHT22;6544;51.666;6.634;2023-07-20T11:39:02;21.90;99.90
12959;DHT22;6544;51.666;6.634;2023-07-20T11:41:30;22.30;99.90
12959;DHT22;6544;51.666;6.634;2023-07-20T11:43:57;22.60;99.90
12959;DHT22;6544;51.666;6.634;2023-07-20T11:46:24;22.60;99.90
12959;DHT22;6544;51.666;6.634;2023-07-20T11:48:56;22.90;99.90
12959;DHT22;6544;51.666;6.634;2023-07-20T11:51:24;23.30;99.90
12959;DHT22;6544;51.666;6.634;2023-07-20T11:53:52;23.70;99.90
12959;DHT22;6544;51.666;6.634;2023-07-20T11:56:20;24.00;99.90
12959;DHT22;6544;51.666;6.634;2023-07-20T11:58:46;23.90;99.90
12959;DHT22;6544;51.666;6.634;2023-07-20T12:01:13;23.70;99.90
12959;DHT22;6544;51.666;6.634;2023-07-20T12:03:42;23.50;99.90
12959;DHT22;6544;51.666;6.634;2023-07-20T12:06:09;23.70;99.90
12959;DHT22;6544;51.666;6.634;2023-07-20T12:08:38;24.20;99.90
12959;DHT22;6544;51.666;6.634;2023-07-20T12:11:08;24.40;99.90
12959;DHT22;6544;51.666;6.634;2023-07-20T12:13:40;23.50;99.90
12959;DHT22;6544;51.666;6.634;2023-07-20T12:16:13;23.20;99.90
12959;DHT22;6544;51.666;6.634;2023-07-20T12:18:40;23.60;99.90
12959;DHT22;6544;51.666;6.634;2023-07-20T12:21:07;23.40;99.90
12959;DHT22;6544;51.666;6.634;2023-07-20T12:23:38;24.00;99.90
12959;DHT22;6544;51.666;6.634;2023-07-20T12:26:10;24.50;99.90
12959;DHT22;6544;51.666;6.634;2023-07-20T12:28:41;23.40;99.90
12959;DHT22;6544;51.666;6.634;2023-07-20T12:31:08;23.00;99.90
12959;DHT22;6544;51.666;6.634;2023-07-20T12:33:36;23.90;99.90
12959;DHT22;6544;51.666;6.634;2023-07-20T12:36:04;23.70;99.90
12959;DHT22;6544;51.666;6.634;2023-07-20T12:38:31;23.30;99.90
12959;DHT22;6544;51.666;6.634;2023-07-20T12:41:00;23.80;99.90
12959;DHT22;6544;51.666;6.634;2023-07-20T12:43:29;24.30;99.90
12959;DHT22;6544;51.666;6.634;2023-07-20T12:45:57;24.80;99.90
12959;DHT22;6544;51.666;6.634;2023-07-20T12:48:25;23.60;99.90
12959;DHT22;6544;51.666;6.634;2023-07-20T12:50:51;24.20;99.90
12959;DHT22;6544;51.666;6.634;2023-07-20T12:53:18;24.50;99.90
12959;DHT22;6544;51.666;6.634;2023-07-20T12:55:45;25.10;99.90
12959;DHT22;6544;51.666;6.634;2023-07-20T12:58:12;24.50;99.90
12959;DHT22;6544;51.666;6.634;2023-07-20T13:00:41;24.50;99.90
12959;DHT22;6544;51.666;6.634;2023-07-20T13:03:08;24.60;99.90
12959;DHT22;6544;51.666;6.634;2023-07-20T13:05:35;24.30;99.90
12959;DHT22;6544;51.666;6.634;2023-07-20T13:08:05;24.40;99.90
12959;DHT22;6544;51.666;6.634;2023-07-20T13:10:32;25.10;99.90
12959;DHT22;6544;51.666;6.634;2023-07-20T13:13:00;24.50;99.90
12959;DHT22;6544;51.666;6.634;2023-07-20T13:15:30;23.80;99.90
12959;DHT22;6544;51.666;6.634;2023-07-20T13:17:59;23.50;99.90
12959;DHT22;6544;51.666;6.634;2023-07-20T13:20:27;23.90;99.90
12959;DHT22;6544;51.666;6.634;2023-07-20T13:22:55;23.60;99.90
12959;DHT22;6544;51.666;6.634;2023-07-20T13:25:22;24.40;99.90
12959;DHT22;6544;51.666;6.634;2023-07-20T13:27:49;25.00;99.90
12959;DHT22;6544;51.666;6.634;2023-07-20T13:30:16;25.30;99.90
12959;DHT22;6544;51.666;6.634;2023-07-20T13:32:43;25.60;99.90
12959;DHT22;6544;51.666;6.634;2023-07-20T13:35:12;25.70;99.90
12959;DHT22;6544;51.666;6.634;2023-07-20T13:37:39;25.50;99.90
12959;DHT22;6544;51.666;6.634;2023-07-20T13:40:07;24.80;99.90
12959;DHT22;6544;51.666;6.634;2023-07-20T13:42:37;23.70;99.90
12959;DHT22;6544;51.666;6.634;2023-07-20T13:45:06;23.20;99.90
12959;DHT22;6544;51.666;6.634;2023-07-20T13:47:33;23.40;99.90
12959;DHT22;6544;51.666;6.634;2023-07-20T13:50:00;23.40;99.90
12959;DHT22;6544;51.666;6.634;2023-07-20T13:52:29;23.30;99.90
12959;DHT22;6544;51.666;6.634;2023-07-20T13:54:56;24.10;99.90
12959;DHT22;6544;51.666;6.634;2023-07-20T13:57:23;24.70;99.90
12959;DHT22;6544;51.666;6.634;2023-07-20T13:59:49;24.70;99.90
12959;DHT22;6544;51.666;6.634;2023-07-20T14:02:16;24.90;99.90
12959;DHT22;6544;51.666;6.634;2023-07-20T14:04:43;24.80;99.90
12959;DHT22;6544;51.666;6.634;2023-07-20T14:07:10;23.60;99.90
12959;DHT22;6544;51.666;6.634;2023-07-20T14:09:40;23.80;99.90
12959;DHT22;6544;51.666;6.634;2023-07-20T14:12:07;23.70;99.90
12959;DHT22;6544;51.666;6.634;2023-07-20T14:14:37;24.10;99.90
12959;DHT22;6544;51.666;6.634;2023-07-20T14:17:04;24.50;99.90
12959;DHT22;6544;51.666;6.634;2023-07-20T14:19:31;24.60;99.90
12959;DHT22;6544;51.666;6.634;2023-07-20T14:21:58;24.80;99.90
12959;DHT22;6544;51.666;6.634;2023-07-20T14:24:25;24.90;99.90
12959;DHT22;6544;51.666;6.634;2023-07-20T14:26:54;24.60;99.90
12959;DHT22;6544;51.666;6.634;2023-07-20T14:29:21;24.70;99.90
12959;DHT22;6544;51.666;6.634;2023-07-20T14:31:47;24.00;99.90
12959;DHT22;6544;51.666;6.634;2023-07-20T14:34:16;24.30;99.90
12959;DHT22;6544;51.666;6.634;2023-07-20T14:36:43;24.20;99.90
12959;DHT22;6544;51.666;6.634;2023-07-20T14:39:10;24.20;99.90
12959;DHT22;6544;51.666;6.634;2023-07-20T14:41:37;24.30;99.90
12959;DHT22;6544;51.666;6.634;2023-07-20T14:44:05;24.50;99.90
12959;DHT22;6544;51.666;6.634;2023-07-20T14:46:32;24.30;99.90
12959;DHT22;6544;51.666;6.634;2023-07-20T14:48:59;23.70;99.90
12959;DHT22;6544;51.666;6.634;2023-07-20T14:51:27;23.50;99.90
12959;DHT22;6544;51.666;6.634;2023-07-20T14:53:57;23.80;99.90
12959;DHT22;6544;51.666;6.634;2023-07-20T14:56:24;24.10;99.90
12959;DHT22;6544;51.666;6.634;2023-07-20T14:58:52;24.40;99.90
12959;DHT22;6544;51.666;6.634;2023-07-20T15:01:20;23.60;99.90
12959;DHT22;6544;51.666;6.634;2023-07-20T15:03:48;23.00;99.90
12959;DHT22;6544;51.666;6.634;2023-07-20T15:06:18;23.10;99.90
12959;DHT22;6544;51.666;6.634;2023-07-20T15:08:46;23.50;99.90
12959;DHT22;6544;51.666;6.634;2023-07-20T15:11:13;23.10;99.90
12959;DHT22;6544;51.666;6.634;2023-07-20T15:13:40;22.60;99.90
12959;DHT22;6544;51.666;6.634;2023-07-20T15:16:08;22.50;99.90
12959;DHT22;6544;51.666;6.634;2023-07-20T15:18:37;22.30;99.90
12959;DHT22;6544;51.666;6.634;2023-07-20T15:21:04;22.60;99.90
12959;DHT22;6544;51.666;6.634;2023-07-20T15:23:31;22.60;99.90
12959;DHT22;6544;51.666;6.634;2023-07-20T15:25:58;22.60;99.90
12959;DHT22;6544;51.666;6.634;2023-07-20T15:28:24;22.30;99.90
12959;DHT22;6544;51.666;6.634;2023-07-20T15:30:59;22.50;99.90
12959;DHT22;6544;51.666;6.634;2023-07-20T15:33:26;22.20;99.90
12959;DHT22;6544;51.666;6.634;2023-07-20T15:35:54;22.50;99.90
12959;DHT22;6544;51.666;6.634;2023-07-20T15:38:21;22.10;99.90
12959;DHT22;6544;51.666;6.634;2023-07-20T15:40:48;21.90;99.90
12959;DHT22;6544;51.666;6.634;2023-07-20T15:43:15;22.40;99.90
12959;DHT22;6544;51.666;6.634;2023-07-20T15:45:46;22.10;99.90
12959;DHT22;6544;51.666;6.634;2023-07-20T15:48:15;22.30;99.90
12959;DHT22;6544;51.666;6.634;2023-07-20T15:50:42;22.60;99.90
12959;DHT22;6544;51.666;6.634;2023-07-20T15:53:11;22.70;99.90
12959;DHT22;6544;51.666;6.634;2023-07-20T15:55:38;23.00;99.90
12959;DHT22;6544;51.666;6.634;2023-07-20T15:58:05;23.20;99.90
12959;DHT22;6544;51.666;6.634;2023-07-20T16:00:32;23.30;99.90
12959;DHT22;6544;51.666;6.634;2023-07-20T16:02:59;23.50;99.90
12959;DHT22;6544;51.666;6.634;2023-07-20T16:05:26;23.30;99.90